Time;durP1;ratioP1;P1;durP2;ratioP2;P2;SDS_P1;SDS_P2;PMS_P1;PMS_P2;Temp;Humidity;BMP_temperature;BMP_pressure;BME280_temperature;BME280_humidity;BME280_pressure;Samples;Min_cycle;Max_cycle;Signal;HPM_P1;HPM_P2
2022/10/07 00:00:50;;;;;;;14.33;8.23;;;;;;;20.80;43.29;101912.72;1733144;82;21072;-79
2022/10/07 00:03:16;;;;;;;14.00;8.53;;;;;;;20.81;43.27;101905.25;1715949;83;21139;-78
2022/10/07 00:05:43;;;;;;;15.08;8.05;;;;;;;20.81;43.25;101908.02;1715993;83;21575;-78
2022/10/07 00:08:09;;;;;;;13.00;8.28;;;;;;;20.81;43.23;101909.39;1715739;83;22467;-78
2022/10/07 00:10:40;;;;;;;12.45;8.63;;;;;;;20.81;43.22;101905.25;1715890;83;21119;-79
2022/10/07 00:13:07;;;;;;;13.55;8.75;;;;;;;20.81;43.20;101909.39;1716365;83;21127;-78
2022/10/07 00:15:34;;;;;;;11.15;8.45;;;;;;;20.80;43.15;101907.19;1716360;83;21049;-79
2022/10/07 00:18:00;;;;;;;11.55;8.83;;;;;;;20.81;43.14;101909.39;1716134;83;21076;-79
2022/10/07 00:20:26;;;;;;;15.53;9.40;;;;;;;20.82;43.10;101909.67;1715705;83;22012;-79
2022/10/07 00:22:52;;;;;;;14.68;9.40;;;;;;;20.80;43.09;101907.19;1714063;83;21057;-79
2022/10/07 00:25:19;;;;;;;10.98;8.53;;;;;;;20.80;43.08;101916.86;1713834;83;21104;-79
2022/10/07 00:27:46;;;;;;;10.80;8.23;;;;;;;20.80;43.05;101919.62;1713982;83;21048;-79
2022/10/07 00:30:13;;;;;;;15.60;9.33;;;;;;;20.81;43.02;101925.44;1714217;83;21076;-79
2022/10/07 00:32:39;;;;;;;13.65;9.13;;;;;;;20.81;43.01;101915.75;1713797;83;21227;-79
2022/10/07 00:35:06;;;;;;;13.35;8.00;;;;;;;20.80;43.00;101916.86;1714051;83;21002;-79
2022/10/07 00:37:32;;;;;;;13.80;8.63;;;;;;;20.80;42.96;101915.48;1692459;83;21017;-79
2022/10/07 00:39:58;;;;;;;12.95;8.98;;;;;;;20.80;42.94;101921.56;1736464;81;21048;-79
2022/10/07 00:42:25;;;;;;;12.15;8.75;;;;;;;20.79;42.91;101923.50;1737592;82;20997;-79
2022/10/07 00:44:51;;;;;;;11.25;9.58;;;;;;;20.79;42.89;101916.59;1740117;82;21019;-79
2022/10/07 00:47:33;;;;;;;15.58;9.53;;;;;;;20.80;42.87;101915.48;1739636;82;21010;-79
2022/10/07 00:50:25;;;;;;;13.53;9.50;;;;;;;20.78;42.85;101908.05;1740035;82;21076;-78
2022/10/07 00:52:55;;;;;;;15.72;10.82;;;;;;;20.78;42.84;101909.44;1739791;81;21088;-78
2022/10/07 00:55:23;;;;;;;13.20;10.60;;;;;;;20.79;42.79;101900.00;1739978;81;21534;-79
2022/10/07 00:57:49;;;;;;;16.93;10.15;;;;;;;20.79;42.77;101904.73;1740011;82;21546;-79
2022/10/07 01:00:16;;;;;;;13.93;10.60;;;;;;;20.78;42.78;101907.22;1739697;82;21029;-79
2022/10/07 01:02:42;;;;;;;15.35;10.45;;;;;;;20.79;42.76;101909.67;1740007;82;21021;-79
2022/10/07 01:05:08;;;;;;;11.68;10.23;;;;;;;20.77;42.75;101898.09;1739612;82;21028;-78
2022/10/07 01:07:35;;;;;;;15.32;10.38;;;;;;;20.78;42.72;101901.69;1739817;81;21112;-78
2022/10/07 01:10:01;;;;;;;13.30;10.50;;;;;;;20.78;42.68;101900.30;1740030;82;21293;-79
2022/10/07 01:13:13;;;;;;;12.15;10.82;;;;;;;20.78;42.68;101898.92;1739831;82;21044;-78
2022/10/07 01:15:55;;;;;;;17.82;12.10;;;;;;;20.78;42.67;101908.05;1736817;82;21085;-79
2022/10/07 01:18:26;;;;;;;16.25;11.85;;;;;;;20.76;42.63;101904.73;1726997;83;20984;-82
2022/10/07 01:21:04;;;;;;;12.70;11.40;;;;;;;20.77;42.61;101906.39;1724371;83;21528;-78
2022/10/07 01:23:53;;;;;;;14.70;11.43;;;;;;;20.77;42.59;101906.95;1719789;83;21277;-79
2022/10/07 01:26:51;;;;;;;13.40;10.60;;;;;;;20.76;42.58;101903.91;1719407;83;21091;-80
2022/10/07 01:29:32;;;;;;;13.80;11.43;;;;;;;20.76;42.55;101903.36;1719816;83;21057;-80
2022/10/07 01:32:09;;;;;;;12.53;10.30;;;;;;;20.75;42.53;101901.70;1719648;83;21561;-79
2022/10/07 01:34:35;;;;;;;14.18;10.60;;;;;;;20.75;42.52;101904.46;1699418;83;21059;-79
2022/10/07 01:37:02;;;;;;;12.10;10.40;;;;;;;20.75;42.51;101905.05;1691523;83;21214;-79
2022/10/07 01:39:34;;;;;;;14.33;10.25;;;;;;;20.74;42.49;101905.60;1719706;83;21519;-80
2022/10/07 01:42:00;;;;;;;12.95;10.58;;;;;;;20.74;42.45;101900.07;1719209;83;21017;-80
2022/10/07 01:44:28;;;;;;;13.55;9.43;;;;;;;20.75;42.48;101913.34;1715154;83;21749;-79
2022/10/07 01:46:54;;;;;;;13.60;9.80;;;;;;;20.74;42.45;101909.75;1719440;81;21079;-78
2022/10/07 01:49:21;;;;;;;12.50;9.75;;;;;;;20.74;42.42;101898.69;1719575;83;21106;-79
2022/10/07 01:52:05;;;;;;;15.13;10.00;;;;;;;20.75;42.41;101903.67;1716972;82;21104;-79
2022/10/07 01:54:54;;;;;;;12.20;10.05;;;;;;;20.75;42.39;101911.37;1709383;83;21107;-79
2022/10/07 01:57:50;;;;;;;14.05;9.55;;;;;;;20.75;42.36;101908.61;1707612;83;21093;-80
2022/10/07 02:00:16;;;;;;;11.88;9.00;;;;;;;20.75;42.32;101905.05;1706568;83;21025;-79
2022/10/07 02:02:57;;;;;;;13.48;9.58;;;;;;;20.74;42.29;101903.39;1709429;84;21302;-79
2022/10/07 02:05:50;;;;;;;13.53;8.98;;;;;;;20.74;42.28;101908.37;1636430;86;21033;-79
2022/10/07 02:08:37;;;;;;;14.33;9.10;;;;;;;20.72;42.27;101902.29;1636347;86;21555;-80
2022/10/07 02:11:17;;;;;;;12.50;8.78;;;;;;;20.72;42.24;101905.05;1624134;86;21021;-80
2022/10/07 02:13:49;;;;;;;13.32;9.65;;;;;;;20.71;42.21;101899.25;1625790;87;21093;-80
2022/10/07 02:16:19;;;;;;;13.43;9.20;;;;;;;20.72;42.18;101900.91;1636470;86;21523;-80
2022/10/07 02:18:49;;;;;;;11.18;9.08;;;;;;;20.72;42.17;101902.84;1636102;86;21665;-80
2022/10/07 02:21:31;;;;;;;12.45;8.68;;;;;;;20.71;42.17;101904.78;1642100;86;21087;-80
2022/10/07 02:23:58;;;;;;;10.53;8.58;;;;;;;20.71;42.13;101900.63;1692920;83;21350;-80
2022/10/07 02:26:24;;;;;;;11.08;8.33;;;;;;;20.71;42.11;101895.69;1653814;86;21083;-80
2022/10/07 02:28:52;;;;;;;9.50;8.23;;;;;;;20.71;42.09;101900.63;1719143;82;21511;-81
2022/10/07 02:31:25;;;;;;;11.33;8.25;;;;;;;20.71;42.06;101893.72;1718986;83;21084;-80
2022/10/07 02:33:52;;;;;;;13.68;8.05;;;;;;;20.70;42.05;101890.72;1719010;83;21530;-80
2022/10/07 02:36:39;;;;;;;8.95;7.50;;;;;;;20.70;42.01;101887.12;1714705;83;21048;-81
2022/10/07 02:39:06;;;;;;;9.53;8.28;;;;;;;20.71;41.99;101892.92;1718999;83;21717;-81
2022/10/07 02:41:43;;;;;;;9.25;7.37;;;;;;;20.70;41.98;101896.24;1719038;82;21076;-80
2022/10/07 02:44:24;;;;;;;9.30;7.17;;;;;;;20.71;41.95;101895.10;1718637;83;21478;-81
2022/10/07 02:47:07;;;;;;;8.25;6.70;;;;;;;20.71;41.93;101892.34;1690088;83;21594;-80
2022/10/07 02:49:37;;;;;;;9.80;7.25;;;;;;;20.69;41.92;101891.83;1653635;86;22386;-80
2022/10/07 02:52:13;;;;;;;10.88;7.37;;;;;;;20.70;41.90;101890.72;1719017;83;21616;-80
2022/10/07 02:54:49;;;;;;;11.22;7.92;;;;;;;20.70;41.87;101899.56;1718656;83;21110;-80
2022/10/07 02:57:17;;;;;;;10.50;7.45;;;;;;;20.70;41.86;101901.77;1718731;83;21084;-80
2022/10/07 02:59:44;;;;;;;9.73;7.37;;;;;;;20.71;41.84;101903.98;1653864;86;21113;-80
2022/10/07 03:02:16;;;;;;;8.25;7.33;;;;;;;20.71;41.83;101910.91;1719320;82;21115;-80
2022/10/07 03:04:42;;;;;;;12.75;7.10;;;;;;;20.70;41.80;101904.54;1718818;83;21033;-80
2022/10/07 03:07:09;;;;;;;11.08;7.78;;;;;;;20.69;41.78;101903.44;1690861;83;21088;-81
2022/10/07 03:09:35;;;;;;;9.53;6.22;;;;;;;20.70;41.76;101914.22;1719150;83;20984;-80
2022/10/07 03:12:02;;;;;;;10.93;7.33;;;;;;;20.70;41.75;101910.63;1654193;86;21054;-80
2022/10/07 03:14:28;;;;;;;10.68;7.15;;;;;;;20.70;41.75;101914.22;1719170;83;21378;-80
2022/10/07 03:16:55;;;;;;;11.18;6.90;;;;;;;20.70;41.72;101910.07;1719371;83;21021;-80
2022/10/07 03:19:22;;;;;;;10.63;7.00;;;;;;;20.70;41.72;101912.84;1654449;86;21629;-80
2022/10/07 03:21:48;;;;;;;11.15;7.60;;;;;;;20.71;41.69;101912.28;1715643;83;21531;-80
2022/10/07 03:24:21;;;;;;;8.53;6.85;;;;;;;20.71;41.68;101917.23;1694194;83;21120;-81
2022/10/07 03:26:47;;;;;;;8.55;6.55;;;;;;;20.70;41.65;101916.98;1649604;87;21066;-80
2022/10/07 03:29:13;;;;;;;7.70;6.58;;;;;;;20.70;41.63;101914.77;1649456;86;21072;-80
2022/10/07 03:31:41;;;;;;;8.63;7.15;;;;;;;20.69;41.65;101912.56;1649669;86;21523;-80
2022/10/07 03:34:08;;;;;;;8.55;6.75;;;;;;;20.69;41.62;101918.09;1657913;86;21057;-80
2022/10/07 03:36:34;;;;;;;9.60;6.17;;;;;;;20.70;41.59;101916.16;1711332;83;21104;-80
2022/10/07 03:39:01;;;;;;;8.93;6.50;;;;;;;20.70;41.58;101918.92;1711605;83;21041;-80
2022/10/07 03:41:33;;;;;;;7.92;6.58;;;;;;;20.70;41.56;101919.75;1711209;83;21579;-80
2022/10/07 03:43:59;;;;;;;9.00;6.10;;;;;;;20.70;41.55;101920.30;1649434;86;21081;-81
2022/10/07 03:46:25;;;;;;;7.20;6.08;;;;;;;20.69;41.53;101917.27;1657909;86;21041;-80
2022/10/07 03:48:52;;;;;;;9.08;6.20;;;;;;;20.69;41.51;101923.62;1711577;83;21610;-80
2022/10/07 03:51:18;;;;;;;9.58;6.58;;;;;;;20.69;41.49;101924.17;1711238;83;21232;-80
2022/10/07 03:53:45;;;;;;;9.88;6.08;;;;;;;20.68;41.46;101921.14;1649541;86;21031;-80
2022/10/07 03:56:11;;;;;;;8.10;5.97;;;;;;;20.67;41.43;101929.16;1657617;86;21095;-80
2022/10/07 03:58:38;;;;;;;8.43;5.47;;;;;;;20.66;41.42;101925.59;1637119;86;21132;-80
2022/10/07 04:01:09;;;;;;;9.88;6.62;;;;;;;20.65;41.37;101932.23;1711493;83;21119;-80
2022/10/07 04:03:35;;;;;;;10.80;5.58;;;;;;;20.65;41.37;101919.80;1629212;87;21066;-80
2022/10/07 04:06:02;;;;;;;8.43;5.53;;;;;;;20.62;41.33;101924.53;1657773;86;21555;-80
2022/10/07 04:08:29;;;;;;;8.58;5.58;;;;;;;20.58;41.31;101929.55;1663773;84;21555;-80
2022/10/07 04:11:00;;;;;;;7.25;5.42;;;;;;;20.53;41.34;101935.12;1659531;86;21068;-81
2022/10/07 04:13:24;;;;;;;9.50;5.35;;;;;;;20.49;41.39;101934.87;1659722;86;21124;-80
2022/10/07 04:15:50;;;;;;;9.70;5.95;;;;;;;20.47;41.35;101939.86;1660532;86;21056;-80
2022/10/07 04:18:22;;;;;;;9.25;5.03;;;;;;;20.42;41.32;101940.72;1658243;86;21064;-80
2022/10/07 04:20:49;;;;;;;9.30;4.72;;;;;;;20.36;41.23;101939.68;1631559;86;21862;-79
2022/10/07 04:23:15;;;;;;;8.25;4.60;;;;;;;20.29;41.19;101945.52;1652609;86;21054;-79
2022/10/07 04:25:45;;;;;;;7.80;4.55;;;;;;;20.24;41.19;101945.52;1689305;82;21479;-79
2022/10/07 04:28:17;;;;;;;11.08;4.42;;;;;;;20.17;41.21;101953.32;1737499;82;21535;-80
2022/10/07 04:30:44;;;;;;;9.83;4.78;;;;;;;20.12;41.20;101957.49;1724504;81;21518;-79
2022/10/07 04:33:10;;;;;;;7.40;4.00;;;;;;;20.07;41.24;101956.17;1723223;82;21233;-79
2022/10/07 04:35:37;;;;;;;6.65;4.20;;;;;;;20.04;41.28;101960.31;1726174;82;20985;-82
2022/10/07 04:38:10;;;;;;;7.10;4.17;;;;;;;20.02;41.33;101957.58;1721772;82;21009;-82
2022/10/07 04:40:42;;;;;;;14.45;3.80;;;;;;;19.97;41.38;101953.46;1714727;82;21610;-81
2022/10/07 04:43:26;;;;;;;7.55;3.95;;;;;;;19.91;41.42;101958.19;1722509;81;21473;-79
2022/10/07 04:45:52;;;;;;;10.53;4.15;;;;;;;19.84;41.48;101953.54;1682570;85;21345;-81
2022/10/07 04:48:21;;;;;;;11.73;4.47;;;;;;;19.80;41.58;101946.94;1711526;81;21090;-76
2022/10/07 04:50:47;;;;;;;12.40;4.22;;;;;;;19.75;41.66;101949.72;1657650;84;21112;-74
2022/10/07 04:53:15;;;;;;;11.08;4.42;;;;;;;19.74;41.71;101943.91;1710062;81;21023;-75
2022/10/07 04:55:48;;;;;;;16.57;5.58;;;;;;;19.72;41.78;101953.61;1720444;81;21024;-80
2022/10/07 04:58:15;;;;;;;14.33;4.72;;;;;;;19.71;41.83;101947.80;1693844;81;22029;-80
2022/10/07 05:00:51;;;;;;;10.60;4.40;;;;;;;19.71;41.93;101951.40;1720018;81;21015;-78
2022/10/07 05:03:20;;;;;;;15.23;4.33;;;;;;;19.72;41.97;101939.80;1711313;81;21118;-76
2022/10/07 05:05:49;;;;;;;9.48;4.55;;;;;;;19.69;41.98;101943.94;1715081;81;21436;-78
2022/10/07 05:08:17;;;;;;;15.10;4.58;;;;;;;19.70;42.01;101935.94;1718471;81;20992;-78
2022/10/07 05:10:43;;;;;;;10.60;4.00;;;;;;;19.71;42.00;101938.97;1656390;85;22457;-78
2022/10/07 05:13:12;;;;;;;12.00;4.17;;;;;;;19.67;42.00;101943.41;1713904;81;21095;-78
2022/10/07 05:15:54;;;;;;;12.45;3.92;;;;;;;19.66;42.01;101944.52;1714844;81;21111;-77
2022/10/07 05:18:21;;;;;;;16.10;6.53;;;;;;;19.66;42.05;101944.52;1718802;81;21059;-77
2022/10/07 05:20:47;;;;;;;14.50;6.75;;;;;;;19.67;42.06;101948.10;1722731;81;21631;-77
2022/10/07 05:23:14;;;;;;;22.13;8.15;;;;;;;19.69;42.06;101952.22;1695472;81;21115;-77
2022/10/07 05:25:42;;;;;;;17.37;7.35;;;;;;;19.69;42.08;101954.98;1731013;81;21081;-77
2022/10/07 05:28:11;;;;;;;17.82;8.10;;;;;;;19.70;42.11;101955.81;1693066;83;21733;-78
2022/10/07 05:30:38;;;;;;;16.57;7.83;;;;;;;19.73;42.13;101958.03;1722168;82;21619;-77
2022/10/07 05:33:05;;;;;;;16.02;7.40;;;;;;;19.73;42.14;101961.59;1720015;81;21558;-79
2022/10/07 05:35:32;;;;;;;15.05;7.87;;;;;;;19.76;42.17;101958.83;1723120;81;21324;-81
2022/10/07 05:37:59;;;;;;;16.87;7.08;;;;;;;19.80;42.18;101967.64;1722782;81;21630;-86
2022/10/07 05:40:26;;;;;;;13.43;6.62;;;;;;;19.84;42.18;101969.28;1721901;81;21015;-79
2022/10/07 05:42:52;;;;;;;13.50;6.80;;;;;;;19.88;42.14;101971.73;1718876;81;21073;-80
2022/10/07 05:45:24;;;;;;;11.10;6.05;;;;;;;19.90;42.13;101974.47;1722525;82;21090;-81
2022/10/07 05:47:50;;;;;;;23.07;5.78;;;;;;;19.92;42.15;101975.03;1696850;82;21092;-79
2022/10/07 05:50:17;;;;;;;15.95;5.50;;;;;;;19.93;42.27;101978.07;1721026;81;21044;-75
2022/10/07 05:52:44;;;;;;;22.60;6.10;;;;;;;19.93;42.26;101977.24;1722166;81;21108;-75
2022/10/07 05:55:10;;;;;;;11.45;5.53;;;;;;;19.92;42.33;101977.80;1725071;82;21108;-75
2022/10/07 05:57:38;;;;;;;23.98;6.90;;;;;;;19.91;42.38;101984.97;1737681;81;21075;-82
2022/10/07 06:00:06;;;;;;;30.82;8.18;;;;;;;19.87;42.50;101983.89;1712035;81;21693;-83
2022/10/07 06:02:32;;;;;;;21.55;5.75;;;;;;;19.85;42.65;101980.61;1724467;82;21043;-78
2022/10/07 06:04:59;;;;;;;21.37;6.12;;;;;;;19.82;42.77;101979.22;1723186;81;22334;-77
2022/10/07 06:07:32;;;;;;;18.90;5.37;;;;;;;19.82;42.85;101972.86;1660457;84;21121;-77
2022/10/07 06:15:16;;;;;;;12.05;4.87;;;;;;;19.79;43.00;101981.17;1726449;82;21618;-80
2022/10/07 06:17:43;;;;;;;9.73;4.75;;;;;;;19.75;42.94;101981.47;1713610;82;21428;-78
2022/10/07 06:20:12;;;;;;;10.78;4.70;;;;;;;19.74;42.92;101981.74;1729899;81;21152;-75
2022/10/07 06:22:38;;;;;;;11.08;4.55;;;;;;;19.70;42.90;101979.28;1716664;81;21043;-77
2022/10/07 06:25:06;;;;;;;16.97;5.47;;;;;;;19.71;42.92;101984.53;1724446;81;21194;-77
2022/10/07 06:27:33;;;;;;;10.23;4.58;;;;;;;19.71;42.92;101983.15;1682093;83;21096;-81
2022/10/07 06:29:59;;;;;;;10.35;4.75;;;;;;;19.72;42.94;101986.74;1686472;83;21140;-80
2022/10/07 06:32:29;;;;;;;14.15;4.80;;;;;;;19.72;42.95;101983.42;1668100;83;21039;-81
2022/10/07 06:34:55;;;;;;;12.40;4.22;;;;;;;19.74;43.02;101988.09;1678497;84;21173;-77
2022/10/07 06:37:22;;;;;;;11.28;4.60;;;;;;;19.77;43.02;101990.86;1684404;83;21112;-78
2022/10/07 06:39:48;;;;;;;9.60;4.25;;;;;;;19.76;43.02;101987.27;1695270;83;20976;-77
2022/10/07 06:42:15;;;;;;;10.20;4.33;;;;;;;19.77;43.01;101995.84;1651497;85;21378;-83
2022/10/07 06:44:47;;;;;;;9.40;4.40;;;;;;;19.75;43.00;101991.14;1683784;83;21417;-89
2022/10/07 06:47:14;;;;;;;12.90;4.60;;;;;;;19.76;43.00;101990.59;1692435;83;21108;-76
2022/10/07 06:49:40;;;;;;;10.23;4.37;;;;;;;19.75;42.98;101990.30;1683794;84;21318;-78
2022/10/07 06:52:07;;;;;;;25.60;4.90;;;;;;;19.73;43.03;101994.72;1724432;81;21110;-82
2022/10/07 06:54:33;;;;;;;15.58;5.25;;;;;;;19.73;43.04;101990.58;1727154;81;21323;-80
2022/10/07 06:56:59;;;;;;;19.50;5.75;;;;;;;19.73;43.09;101993.34;1722276;82;21080;-86
2022/10/07 06:59:26;;;;;;;31.07;7.15;;;;;;;19.72;43.11;101993.09;1719056;82;21657;-84
2022/10/07 07:01:52;;;;;;;29.07;6.30;;;;;;;19.72;43.18;101988.12;1718632;81;21983;-75
2022/10/07 07:04:18;;;;;;;22.75;5.53;;;;;;;19.74;43.27;101985.89;1715662;81;21119;-76
2022/10/07 07:06:45;;;;;;;20.30;5.45;;;;;;;19.74;43.40;101986.72;1716303;81;21109;-75
2022/10/07 07:09:12;;;;;;;13.55;4.12;;;;;;;19.77;43.43;101986.72;1700385;82;21584;-75
2022/10/07 07:11:44;;;;;;;12.63;4.30;;;;;;;19.77;43.47;101986.17;1720239;81;21168;-75
2022/10/07 07:14:11;;;;;;;15.53;4.37;;;;;;;19.79;43.60;101988.08;1719190;81;21648;-77
2022/10/07 07:16:37;;;;;;;10.90;4.28;;;;;;;19.80;43.68;101995.26;1705575;82;21073;-75
2022/10/07 07:19:07;;;;;;;9.73;4.35;;;;;;;19.82;43.72;102002.69;1725645;81;21512;-75
2022/10/07 07:21:35;;;;;;;12.33;3.92;;;;;;;19.82;43.71;102004.07;1723254;81;21603;-77
2022/10/07 07:24:01;;;;;;;8.90;4.28;;;;;;;19.84;43.73;102001.03;1712946;81;21299;-76
2022/10/07 07:26:28;;;;;;;9.23;3.87;;;;;;;19.84;43.77;102002.42;1703395;81;22326;-76
2022/10/07 07:29:01;;;;;;;9.18;4.03;;;;;;;19.86;43.78;102001.02;1726207;81;21585;-76
2022/10/07 07:31:27;;;;;;;7.20;3.90;;;;;;;19.86;43.85;101997.45;1683605;83;21076;-78
2022/10/07 07:33:59;;;;;;;11.78;4.62;;;;;;;19.86;43.88;101996.87;1681231;84;22281;-77
2022/10/07 07:36:25;;;;;;;8.18;3.65;;;;;;;19.86;43.98;101994.69;1686714;83;21080;-75
2022/10/07 07:38:58;;;;;;;11.97;4.50;;;;;;;19.87;44.05;101998.53;1688923;81;21119;-78
2022/10/07 07:41:30;;;;;;;10.60;3.77;;;;;;;19.88;44.23;101991.08;1720523;81;21121;-76
2022/10/07 07:44:06;;;;;;;8.90;3.70;;;;;;;19.89;44.42;101996.88;1702450;82;21638;-82
2022/10/07 07:46:38;;;;;;;6.67;3.67;;;;;;;19.90;44.53;101993.81;1657538;84;21622;-82
2022/10/07 07:49:05;;;;;;;5.92;3.27;;;;;;;19.90;44.62;101995.77;1687651;83;21116;-80
2022/10/07 07:51:32;;;;;;;11.05;3.90;;;;;;;19.90;44.76;101999.33;1721146;81;22271;-80
2022/10/07 07:53:59;;;;;;;9.13;3.58;;;;;;;19.87;44.88;101993.55;1721851;81;22254;-80
2022/10/07 07:56:30;;;;;;;10.65;4.00;;;;;;;19.85;45.05;101992.48;1717776;81;21572;-83
2022/10/07 07:58:56;;;;;;;10.08;3.95;;;;;;;19.85;45.19;101985.58;1726304;81;21428;-78
2022/10/07 08:01:23;;;;;;;11.03;3.52;;;;;;;19.86;45.45;101993.31;1726762;81;21793;-80
2022/10/07 08:03:49;;;;;;;7.22;3.02;;;;;;;19.85;45.48;101984.75;1720160;81;21166;-78
2022/10/07 08:06:19;;;;;;;12.78;4.28;;;;;;;19.87;45.66;101991.62;1683673;83;21599;-78
2022/10/07 08:08:46;;;;;;;16.48;3.92;;;;;;;19.90;45.83;101981.97;1724635;81;21236;-76
2022/10/07 08:11:18;;;;;;;4.75;3.10;;;;;;;19.93;45.88;101980.00;1724478;81;21194;-76
2022/10/07 08:13:44;;;;;;;6.85;3.60;;;;;;;19.95;45.91;101985.50;1728767;81;21630;-80
2022/10/07 08:16:13;;;;;;;5.58;3.72;;;;;;;19.95;45.91;101977.22;1725102;81;21835;-78
2022/10/07 08:18:45;;;;;;;11.57;3.75;;;;;;;19.96;45.94;101977.49;1730485;81;21123;-79
2022/10/07 08:21:12;;;;;;;8.43;3.20;;;;;;;19.99;46.00;101967.80;1724954;81;21099;-78
2022/10/07 08:23:46;;;;;;;8.93;3.67;;;;;;;20.00;46.00;101970.84;1722043;81;21159;-79
2022/10/07 08:26:12;;;;;;;5.53;3.30;;;;;;;20.02;46.05;101970.84;1713161;82;22214;-81
2022/10/07 08:28:39;;;;;;;6.00;3.40;;;;;;;20.04;46.04;101965.84;1711084;81;21116;-76
2022/10/07 08:31:09;;;;;;;6.72;3.35;;;;;;;20.06;46.10;101969.16;1683315;83;21052;-82
2022/10/07 08:33:38;;;;;;;9.30;3.70;;;;;;;20.07;46.11;101963.88;1644940;85;21092;-78
2022/10/07 08:36:05;;;;;;;7.65;3.90;;;;;;;20.11;46.20;101960.02;1651444;84;21551;-77
2022/10/07 08:38:35;;;;;;;7.60;3.47;;;;;;;20.13;46.21;101962.47;1716877;81;21050;-81
2022/10/07 08:41:34;;;;;;;11.03;3.67;;;;;;;20.15;46.22;101965.78;1681222;83;21610;-79
2022/10/07 08:43:59;;;;;;;5.08;3.55;;;;;;;20.16;46.25;101961.34;1647282;84;21189;-78
2022/10/07 08:46:30;;;;;;;7.80;3.52;;;;;;;20.20;46.32;101956.09;1677961;83;21087;-75
2022/10/07 08:49:12;;;;;;;15.83;4.55;;;;;;;20.21;46.45;101954.39;1678522;84;21137;-77
2022/10/07 08:51:50;;;;;;;12.35;3.52;;;;;;;20.26;46.60;101947.45;1682979;84;21087;-75
2022/10/07 08:54:20;;;;;;;26.65;3.65;;;;;;;20.30;46.68;101944.41;1684647;83;22111;-78
2022/10/07 08:56:53;;;;;;;16.97;3.98;;;;;;;20.34;46.75;101952.40;1690311;83;21120;-77
2022/10/07 08:59:33;;;;;;;16.48;3.92;;;;;;;20.36;46.99;101956.27;1654960;84;21092;-79
2022/10/07 09:02:32;;;;;;;13.98;3.92;;;;;;;20.36;46.97;101951.56;1690080;83;21183;-79
2022/10/07 09:05:22;;;;;;;13.18;4.37;;;;;;;20.39;47.08;101950.98;1656400;83;47878;-78
2022/10/07 09:07:56;;;;;;;7.78;3.17;;;;;;;20.42;47.15;101945.42;1685133;83;21961;-79
2022/10/07 09:10:45;;;;;;;6.75;3.27;;;;;;;20.43;47.10;101941.00;1653596;85;21073;-80
2022/10/07 09:13:24;;;;;;;5.35;3.00;;;;;;;20.44;46.98;101941.27;1657548;84;21064;-79
2022/10/07 09:16:02;;;;;;;5.37;3.58;;;;;;;20.45;46.85;101935.19;1653919;85;21117;-79
2022/10/07 09:18:41;;;;;;;7.05;3.30;;;;;;;20.46;46.74;101940.97;1659951;85;21147;-80
2022/10/07 09:21:11;;;;;;;4.95;2.75;;;;;;;20.46;46.67;101935.44;1681411;84;21915;-80
2022/10/07 09:23:38;;;;;;;5.05;2.90;;;;;;;20.47;46.61;101938.47;1680192;84;21621;-80
2022/10/07 09:26:12;;;;;;;9.15;2.72;;;;;;;20.47;46.60;101936.53;1674301;83;21547;-80
2022/10/07 09:28:39;;;;;;;10.32;3.20;;;;;;;20.47;46.55;101926.86;1681730;84;21657;-80
2022/10/07 09:31:05;;;;;;;6.83;2.70;;;;;;;20.47;46.50;101924.66;1679274;84;21153;-80
2022/10/07 09:33:34;;;;;;;5.90;3.05;;;;;;;20.48;46.47;101920.78;1672230;83;21611;-80
2022/10/07 09:36:07;;;;;;;4.15;2.80;;;;;;;20.49;46.44;101916.91;1661731;84;20959;-79
2022/10/07 09:38:42;;;;;;;7.72;2.85;;;;;;;20.49;46.42;101916.36;1687909;84;21112;-80
2022/10/07 09:41:30;;;;;;;5.80;3.15;;;;;;;20.50;46.41;101908.86;1678806;84;21009;-81
2022/10/07 09:44:19;;;;;;;6.50;3.30;;;;;;;20.50;46.44;101904.16;1678787;83;21036;-80
2022/10/07 09:46:53;;;;;;;7.60;3.00;;;;;;;20.50;46.42;101900.56;1657631;85;21093;-80
2022/10/07 09:49:38;;;;;;;9.20;3.08;;;;;;;20.50;46.41;101893.09;1659646;85;21108;-81
2022/10/07 09:52:23;;;;;;;5.75;3.08;;;;;;;20.49;46.48;101887.87;1662462;85;21073;-79
2022/10/07 09:54:52;;;;;;;11.20;4.70;;;;;;;20.50;46.57;101890.34;1650511;85;21118;-78
2022/10/07 09:57:31;;;;;;;9.23;4.03;;;;;;;20.53;46.84;101876.50;1682987;83;21605;-81
2022/10/07 10:00:21;;;;;;;11.57;3.15;;;;;;;20.57;47.04;101883.66;1687508;84;21442;-79
2022/10/07 10:02:52;;;;;;;7.40;2.75;;;;;;;20.61;47.10;101873.66;1670283;85;21578;-79
2022/10/07 10:05:32;;;;;;;;;;;;;;;20.63;46.94;101871.41;1668894;86;21191;-80
2022/10/07 10:08:04;;;;;;;7.35;2.40;;;;;;;20.62;46.72;101872.00;1687724;84;20174;-80
2022/10/07 10:10:35;;;;;;;3.95;2.42;;;;;;;20.62;46.58;101875.31;1668400;84;21117;-78
2022/10/07 10:13:03;;;;;;;5.35;2.58;;;;;;;20.62;46.48;101871.17;1670211;84;21157;-80
2022/10/07 10:15:43;;;;;;;8.13;3.05;;;;;;;20.63;46.39;101865.88;1637651;86;21549;-81
2022/10/07 10:18:39;;;;;;;6.55;2.90;;;;;;;20.63;46.36;101862.56;1715185;82;21149;-82
2022/10/07 10:21:22;;;;;;;5.30;2.40;;;;;;;20.62;46.31;101854.02;1708969;81;21555;-81
2022/10/07 10:23:58;;;;;;;5.30;2.90;;;;;;;20.62;46.20;101844.34;1706895;82;21048;-80
2022/10/07 10:26:45;;;;;;;5.92;2.70;;;;;;;20.62;46.16;101838.81;1714845;82;21523;-81
2022/10/07 10:29:39;;;;;;;7.58;2.85;;;;;;;20.61;46.10;101848.22;1721258;81;21047;-80
2022/10/07 10:32:47;;;;;;;6.28;2.60;;;;;;;20.60;46.05;101839.66;1709876;81;21127;-81
2022/10/07 10:35:25;;;;;;;4.87;2.75;;;;;;;20.60;46.00;101836.89;1710510;81;21087;-81
2022/10/07 10:37:57;;;;;;;8.35;2.60;;;;;;;20.60;45.92;101834.13;1722501;81;21104;-81
2022/10/07 10:40:37;;;;;;;4.55;2.30;;;;;;;20.61;45.86;101834.95;1721855;81;22098;-80
2022/10/07 10:43:34;;;;;;;4.83;2.50;;;;;;;20.61;45.80;101821.95;1725050;81;21068;-80
2022/10/07 10:46:28;;;;;;;5.33;2.58;;;;;;;20.61;45.76;101830.25;1731803;81;21512;-79
2022/10/07 10:49:43;;;;;;;11.15;3.00;;;;;;;20.61;45.62;101830.25;1710650;81;21048;-79
2022/10/07 10:52:20;;;;;;;7.92;2.50;;;;;;;20.61;45.55;101816.42;1714755;81;21047;-81
2022/10/07 10:55:18;;;;;;;4.03;2.60;;;;;;;20.61;45.52;101805.92;1726204;82;21272;-79
2022/10/07 10:58:08;;;;;;;10.82;2.77;;;;;;;20.63;45.67;101798.14;1727179;81;21096;-80
2022/10/07 11:01:25;;;;;;;8.30;2.67;;;;;;;20.65;45.73;101800.89;1728807;81;21867;-79
2022/10/07 11:04:03;;;;;;;8.53;2.55;;;;;;;20.68;45.73;101801.67;1720631;82;21100;-80
2022/10/07 11:06:32;;;;;;;9.83;2.77;;;;;;;20.71;45.79;101793.37;1716798;82;21104;-80
2022/10/07 11:08:58;;;;;;;7.40;2.58;;;;;;;20.71;45.78;101787.25;1692494;82;21138;-81
2022/10/07 11:11:25;;;;;;;6.80;2.80;;;;;;;20.73;45.75;101789.73;1723528;82;21076;-81
2022/10/07 11:14:06;;;;;;;5.75;2.92;;;;;;;20.74;45.70;101786.69;1721381;83;21071;-81
2022/10/07 11:16:44;;;;;;;9.98;2.90;;;;;;;20.74;45.68;101781.16;1713795;82;21065;-81
2022/10/07 11:19:24;;;;;;;5.45;2.83;;;;;;;20.73;45.65;101783.64;1716905;81;21086;-79
2022/10/07 11:21:56;;;;;;;8.05;2.40;;;;;;;20.74;45.63;101775.63;1699975;82;21359;-82
2022/10/07 11:24:39;;;;;;;5.83;2.58;;;;;;;20.73;45.54;101762.08;1727617;81;21417;-83
2022/10/07 11:27:17;;;;;;;4.85;2.35;;;;;;;20.73;45.43;101768.44;1699242;81;21081;-83
2022/10/07 11:29:57;;;;;;;6.80;3.65;;;;;;;20.75;45.39;101773.69;1696093;83;22171;-82
2022/10/07 11:32:29;;;;;;;2.95;2.40;;;;;;;20.74;45.27;101765.95;1690388;83;21073;-80
2022/10/07 11:35:22;;;;;;;4.40;2.58;;;;;;;20.75;45.20;101762.63;1684840;83;21115;-80
2022/10/07 11:38:12;;;;;;;8.15;2.50;;;;;;;20.75;45.13;101755.13;1680312;83;21366;-80
2022/10/07 11:40:56;;;;;;;4.58;2.55;;;;;;;20.75;45.08;101755.13;1684740;83;21139;-79
2022/10/07 11:43:55;;;;;;;5.90;2.87;;;;;;;20.76;44.97;101756.78;1695915;83;21083;-80
2022/10/07 11:46:27;;;;;;;5.90;2.90;;;;;;;20.76;44.93;101755.95;1688904;83;22074;-81
2022/10/07 11:49:11;;;;;;;3.95;3.00;;;;;;;20.76;44.85;101755.95;1690527;84;22058;-81